createdAt,value
2023-02-22T00:01:51.117Z,8.52
2023-02-22T00:04:21.457Z,8.61
2023-02-22T00:06:50.904Z,8.69
2023-02-22T00:09:21.520Z,8.61
2023-02-22T00:11:50.250Z,8.45
2023-02-22T00:14:20.607Z,8.32
2023-02-22T00:16:48.950Z,8.12
2023-02-22T00:19:16.814Z,7.75
2023-02-22T00:21:45.309Z,7.71
2023-02-22T00:24:23.935Z,7.72
2023-02-22T00:26:53.211Z,7.66
2023-02-22T00:29:21.067Z,7.53
2023-02-22T00:31:49.023Z,7.50
2023-02-22T00:34:17.057Z,7.43
2023-02-22T00:36:48.311Z,7.45
2023-02-22T00:39:17.905Z,7.53
2023-02-22T00:41:46.032Z,7.67
2023-02-22T00:44:13.930Z,7.92
2023-02-22T00:46:41.804Z,8.17
2023-02-22T00:49:09.689Z,8.25
2023-02-22T00:51:37.557Z,8.26
2023-02-22T00:54:05.570Z,8.31
2023-02-22T00:56:35.902Z,8.29
2023-02-22T00:59:03.798Z,8.26
2023-02-22T01:01:31.839Z,8.25
2023-02-22T01:03:59.823Z,8.37
2023-02-22T01:06:27.803Z,8.55
2023-02-22T01:08:55.847Z,8.44
2023-02-22T01:11:23.742Z,8.22
2023-02-22T01:13:56.626Z,8.06
2023-02-22T01:16:25.134Z,8.03
2023-02-22T01:18:53.090Z,8.04
2023-02-22T01:21:21.062Z,8.09
2023-02-22T01:23:49.229Z,8.11
2023-02-22T01:26:17.110Z,8.04
2023-02-22T01:28:44.996Z,8.00
2023-02-22T01:31:14.372Z,7.90
2023-02-22T01:33:42.453Z,7.89
2023-02-22T01:36:11.514Z,7.90
2023-02-22T01:38:39.745Z,7.82
2023-02-22T01:41:07.775Z,7.83
2023-02-22T01:43:35.694Z,7.81
2023-02-22T01:46:05.117Z,7.81
2023-02-22T01:48:45.379Z,7.77
2023-02-22T01:51:18.155Z,7.75
2023-02-22T01:53:49.788Z,7.72
2023-02-22T01:56:20.157Z,7.58
2023-02-22T01:58:51.905Z,7.39
2023-02-22T02:01:23.509Z,7.33
2023-02-22T02:03:58.145Z,7.25
2023-02-22T02:06:27.638Z,7.41
2023-02-22T02:09:01.743Z,7.44
2023-02-22T02:11:30.010Z,7.34
2023-02-22T02:13:59.398Z,7.16
2023-02-22T02:16:40.184Z,6.97
2023-02-22T02:19:17.063Z,6.76
2023-02-22T02:22:18.331Z,6.60
2023-02-22T02:25:26.659Z,6.43
2023-02-22T02:28:15.225Z,6.30
2023-02-22T02:31:14.620Z,6.28
2023-02-22T02:33:46.143Z,6.26
2023-02-22T02:36:20.927Z,6.26
2023-02-22T02:38:56.804Z,6.19
2023-02-22T02:41:28.918Z,6.14
2023-02-22T02:44:01.477Z,6.07
2023-02-22T02:46:35.494Z,6.11
2023-02-22T02:49:09.742Z,6.15
2023-02-22T02:51:42.820Z,6.24
2023-02-22T02:54:13.480Z,6.30
2023-02-22T02:56:42.812Z,6.37
2023-02-22T02:59:25.769Z,6.52
2023-02-22T03:02:08.773Z,6.59
2023-02-22T03:04:54.503Z,6.68
2023-02-22T03:07:32.868Z,6.75
2023-02-22T03:10:14.708Z,6.84
2023-02-22T03:12:50.180Z,6.87
2023-02-22T03:15:34.139Z,6.96
2023-02-22T03:18:07.997Z,6.87
2023-02-22T03:20:46.439Z,6.70
2023-02-22T03:23:25.318Z,6.86
2023-02-22T03:25:57.690Z,6.85
2023-02-22T03:28:28.854Z,6.75
2023-02-22T03:31:02.101Z,6.86
2023-02-22T03:33:36.449Z,6.85
2023-02-22T03:36:13.517Z,7.00
2023-02-22T03:38:44.345Z,7.27
2023-02-22T03:41:17.361Z,7.38
2023-02-22T03:43:50.453Z,7.54
2023-02-22T03:46:20.461Z,7.64
2023-02-22T03:48:54.160Z,7.64
2023-02-22T03:51:24.708Z,7.51
2023-02-22T03:53:53.730Z,7.33
2023-02-22T03:56:26.923Z,7.01
2023-02-22T03:58:55.477Z,7.10
2023-02-22T04:01:23.736Z,6.87
2023-02-22T04:03:51.642Z,6.89
2023-02-22T04:06:19.504Z,6.80
2023-02-22T04:08:48.781Z,6.85
2023-02-22T04:11:16.960Z,6.87
2023-02-22T04:13:45.034Z,6.82
2023-02-22T04:16:13.044Z,6.68
2023-02-22T04:18:41.059Z,6.56
2023-02-22T04:21:09.358Z,6.48
2023-02-22T04:23:37.256Z,6.32
2023-02-22T04:26:06.733Z,6.17
2023-02-22T04:28:34.612Z,6.11
2023-02-22T04:31:02.520Z,6.05
2023-02-22T04:33:30.491Z,5.94
2023-02-22T04:35:59.484Z,5.78
2023-02-22T04:38:27.999Z,5.72
2023-02-22T04:40:56.315Z,5.61
2023-02-22T04:43:25.862Z,5.40
2023-02-22T04:45:53.957Z,5.21
2023-02-22T04:48:22.039Z,5.39
2023-02-22T04:50:51.360Z,5.25
2023-02-22T04:53:19.251Z,5.22
2023-02-22T04:55:47.235Z,5.24
2023-02-22T04:58:15.143Z,5.23
2023-02-22T05:00:44.350Z,5.20
2023-02-22T05:03:12.217Z,5.10
2023-02-22T05:05:40.274Z,5.14
2023-02-22T05:08:08.118Z,5.19
2023-02-22T05:10:35.998Z,5.19
2023-02-22T05:13:04.338Z,5.13
2023-02-22T05:15:32.604Z,4.91
2023-02-22T05:18:01.898Z,4.88
2023-02-22T05:20:32.044Z,4.89
2023-02-22T05:23:01.541Z,4.86
2023-02-22T05:25:29.739Z,4.89
2023-02-22T05:27:59.990Z,4.97
2023-02-22T05:30:30.592Z,4.98
2023-02-22T05:32:59.268Z,4.91
2023-02-22T05:35:29.399Z,4.98
2023-02-22T05:37:58.563Z,4.95
2023-02-22T05:40:28.163Z,4.92
2023-02-22T05:42:56.782Z,4.89
2023-02-22T05:45:27.002Z,4.98
2023-02-22T05:47:55.887Z,5.04
2023-02-22T05:50:24.560Z,5.06
2023-02-22T05:52:54.331Z,5.13
2023-02-22T05:55:24.184Z,5.21
2023-02-22T05:57:52.689Z,5.23
2023-02-22T06:00:23.599Z,5.20
2023-02-22T06:02:56.095Z,5.42
2023-02-22T06:05:24.048Z,5.49
2023-02-22T06:07:53.935Z,5.64
2023-02-22T06:10:22.231Z,5.73
2023-02-22T06:12:50.973Z,5.90
2023-02-22T06:15:20.630Z,6.00
2023-02-22T06:17:48.795Z,5.97
2023-02-22T06:20:19.328Z,5.94
2023-02-22T06:22:48.521Z,6.08
2023-02-22T06:25:20.109Z,6.14
2023-02-22T06:27:48.032Z,6.20
2023-02-22T06:30:17.797Z,6.27
2023-02-22T06:32:45.764Z,6.33
2023-02-22T06:35:13.953Z,6.44
2023-02-22T06:37:41.897Z,6.37
2023-02-22T06:40:11.289Z,6.49
2023-02-22T06:42:40.917Z,6.60
2023-02-22T06:45:10.240Z,6.57
2023-02-22T06:47:41.420Z,6.56
2023-02-22T06:50:18.494Z,6.64
2023-02-22T06:52:47.921Z,6.61
2023-02-22T06:55:19.030Z,6.65
2023-02-22T06:57:48.406Z,6.79
2023-02-22T07:00:17.809Z,6.78
2023-02-22T07:02:45.898Z,6.96
2023-02-22T07:05:14.023Z,6.99
2023-02-22T07:07:42.016Z,7.15
2023-02-22T07:10:17.194Z,7.20
2023-02-22T07:12:45.134Z,7.34
2023-02-22T07:15:14.791Z,7.45
2023-02-22T07:17:42.852Z,7.48
2023-02-22T07:20:11.655Z,7.50
2023-02-22T07:22:40.225Z,7.58
2023-02-22T07:25:11.290Z,7.63
2023-02-22T07:27:40.052Z,7.76
2023-02-22T07:30:10.174Z,7.73
2023-02-22T07:32:39.590Z,7.84
2023-02-22T07:35:08.419Z,7.88
2023-02-22T07:37:36.242Z,7.80
2023-02-22T07:40:04.301Z,7.93
2023-02-22T07:42:33.163Z,7.81
2023-02-22T07:45:00.999Z,7.95
2023-02-22T07:47:28.872Z,7.95
2023-02-22T07:49:58.674Z,8.08
2023-02-22T07:52:26.564Z,8.34
2023-02-22T07:54:54.669Z,8.50
2023-02-22T07:57:24.038Z,8.69
2023-02-22T07:59:51.883Z,8.86
2023-02-22T08:02:19.884Z,9.03
2023-02-22T08:04:47.784Z,9.09
2023-02-22T08:07:17.110Z,9.24
2023-02-22T08:09:45.027Z,9.33
2023-02-22T08:12:13.044Z,9.42
2023-02-22T08:14:40.946Z,9.58
2023-02-22T08:17:09.599Z,9.65
2023-02-22T08:19:39.251Z,9.72
2023-02-22T08:22:07.095Z,9.90
2023-02-22T08:24:36.357Z,10.06
2023-02-22T08:27:04.220Z,10.18
2023-02-22T08:29:33.637Z,10.27
2023-02-22T08:32:01.907Z,10.41
2023-02-22T08:34:29.853Z,10.50
2023-02-22T08:36:57.920Z,10.43
2023-02-22T08:39:25.827Z,10.62
2023-02-22T08:41:55.073Z,10.81
2023-02-22T08:44:24.224Z,10.95
2023-02-22T08:46:52.710Z,11.10
2023-02-22T08:49:20.660Z,11.08
2023-02-22T08:51:49.030Z,11.25
2023-02-22T08:54:18.265Z,11.39
2023-02-22T08:56:46.228Z,11.54
2023-02-22T08:59:15.906Z,11.71
2023-02-22T09:01:44.201Z,11.87
2023-02-22T09:04:12.102Z,12.02
2023-02-22T09:06:42.373Z,12.10
2023-02-22T09:09:10.866Z,12.15
2023-02-22T09:11:38.716Z,12.21
2023-02-22T09:14:06.595Z,12.30
2023-02-22T09:16:38.023Z,12.22
2023-02-22T09:19:05.941Z,12.50
2023-02-22T09:21:44.855Z,12.49
2023-02-22T09:24:12.886Z,12.72
2023-02-22T09:26:40.796Z,12.94
2023-02-22T09:29:09.843Z,12.96
2023-02-22T09:31:40.512Z,13.17
2023-02-22T09:34:13.972Z,13.18
2023-02-22T09:36:42.101Z,13.16
2023-02-22T09:39:11.329Z,13.29
2023-02-22T09:41:48.029Z,13.49
2023-02-22T09:44:24.048Z,13.53
2023-02-22T09:46:56.280Z,13.67
2023-02-22T09:49:29.452Z,13.88
2023-02-22T09:52:02.637Z,14.20
2023-02-22T09:54:35.825Z,14.59
2023-02-22T09:57:08.723Z,14.94
2023-02-22T09:59:43.476Z,15.36
2023-02-22T10:02:25.916Z,15.72
2023-02-22T10:04:58.654Z,16.43
2023-02-22T10:07:33.269Z,16.99
2023-02-22T10:10:06.844Z,17.18
2023-02-22T10:12:49.649Z,17.38
2023-02-22T10:15:47.559Z,17.74
2023-02-22T10:18:46.849Z,17.92
2023-02-22T10:21:28.107Z,18.02
2023-02-22T10:24:06.138Z,17.86
2023-02-22T10:26:37.680Z,18.10
2023-02-22T10:29:11.864Z,18.03
2023-02-22T10:31:59.479Z,18.61
2023-02-22T10:34:34.959Z,18.77
2023-02-22T10:37:15.690Z,19.02
2023-02-22T10:39:45.641Z,19.34
2023-02-22T10:42:13.640Z,19.28
2023-02-22T10:44:42.171Z,19.50
2023-02-22T10:47:12.747Z,19.72
2023-02-22T10:49:45.448Z,19.93
2023-02-22T10:52:18.517Z,20.10
2023-02-22T10:54:49.586Z,20.12
2023-02-22T10:57:22.373Z,20.53
2023-02-22T10:59:52.052Z,20.30
2023-02-22T11:02:25.090Z,20.02
2023-02-22T11:04:56.417Z,19.95
2023-02-22T11:07:27.311Z,19.55
2023-02-22T11:09:56.997Z,19.85
2023-02-22T11:12:32.031Z,19.83
2023-02-22T11:15:18.940Z,19.33
2023-02-22T11:17:48.545Z,19.80
2023-02-22T11:20:25.364Z,19.88
2023-02-22T11:22:55.570Z,20.53
2023-02-22T11:25:29.710Z,20.52
2023-02-22T11:28:09.426Z,21.03
2023-02-22T11:30:38.449Z,20.97
2023-02-22T11:33:23.436Z,21.42
2023-02-22T11:35:54.699Z,21.59
2023-02-22T11:38:24.815Z,22.14
2023-02-22T11:41:09.198Z,21.39
2023-02-22T11:43:37.721Z,21.19
2023-02-22T11:46:08.523Z,21.26
2023-02-22T11:48:39.483Z,21.19
2023-02-22T11:51:27.725Z,21.38
2023-02-22T11:54:25.471Z,21.66
2023-02-22T11:56:56.809Z,20.87
2023-02-22T11:59:38.473Z,20.96
2023-02-22T12:02:30.483Z,21.18
2023-02-22T12:05:13.788Z,21.60
2023-02-22T12:07:57.018Z,21.89
2023-02-22T12:10:35.233Z,21.81
2023-02-22T12:13:19.611Z,22.32
2023-02-22T12:15:57.386Z,22.20
2023-02-22T12:18:35.900Z,22.62
2023-02-22T12:21:08.270Z,22.04
2023-02-22T12:23:45.973Z,22.38
2023-02-22T12:26:20.077Z,22.45
2023-02-22T12:28:53.417Z,22.02
2023-02-22T12:31:25.338Z,21.62
2023-02-22T12:34:03.496Z,21.25
2023-02-22T12:36:37.145Z,21.90
2023-02-22T12:39:23.561Z,21.74
2023-02-22T12:41:55.728Z,21.28
2023-02-22T12:44:27.603Z,22.03
2023-02-22T12:47:00.144Z,22.05
2023-02-22T12:49:35.888Z,21.07
2023-02-22T12:52:21.373Z,21.19
2023-02-22T12:54:59.388Z,21.65
2023-02-22T12:57:39.186Z,22.52
2023-02-22T13:00:17.202Z,22.44
2023-02-22T13:02:50.453Z,22.08
2023-02-22T13:05:20.922Z,21.86
2023-02-22T13:07:59.823Z,21.73
2023-02-22T13:10:47.563Z,22.15
2023-02-22T13:13:21.600Z,22.25
2023-02-22T13:15:56.312Z,22.31
2023-02-22T13:18:29.759Z,22.61
2023-02-22T13:21:04.030Z,22.02
2023-02-22T13:23:44.634Z,21.16
2023-02-22T13:26:20.251Z,21.06
2023-02-22T13:28:52.235Z,21.07
2023-02-22T13:31:35.992Z,21.00
2023-02-22T13:34:21.187Z,20.93
2023-02-22T13:37:01.831Z,21.43
2023-02-22T13:40:02.546Z,21.40
2023-02-22T13:42:55.248Z,21.03
2023-02-22T13:45:49.874Z,20.86
2023-02-22T13:48:35.644Z,21.04
2023-02-22T13:51:12.170Z,20.99
2023-02-22T13:53:49.842Z,21.30
2023-02-22T13:56:19.922Z,21.55
2023-02-22T13:58:52.181Z,22.34
2023-02-22T14:01:40.677Z,22.09
2023-02-22T14:04:33.627Z,21.68
2023-02-22T14:07:02.734Z,21.48
2023-02-22T14:09:48.226Z,21.62
2023-02-22T14:12:59.067Z,21.89
2023-02-22T14:15:30.328Z,21.64
2023-02-22T14:18:00.937Z,21.35
2023-02-22T14:20:32.515Z,20.84
2023-02-22T14:23:32.953Z,20.95
2023-02-22T14:26:13.383Z,20.91
2023-02-22T14:28:50.534Z,20.93
2023-02-22T14:31:35.002Z,20.51
2023-02-22T14:34:11.257Z,20.33
2023-02-22T14:36:53.380Z,20.81
2023-02-22T14:39:31.801Z,20.60
2023-02-22T14:42:03.728Z,20.57
2023-02-22T14:44:37.120Z,20.61
2023-02-22T14:47:08.822Z,20.77
2023-02-22T14:49:42.537Z,20.61
2023-02-22T14:52:22.499Z,20.44
2023-02-22T14:54:59.866Z,21.07
2023-02-22T14:57:38.645Z,21.61
2023-02-22T15:00:20.742Z,21.31
2023-02-22T15:02:52.428Z,21.34
2023-02-22T15:05:21.191Z,20.81
2023-02-22T15:07:54.477Z,20.64
2023-02-22T15:10:26.701Z,20.63
2023-02-22T15:13:08.936Z,20.06
2023-02-22T15:15:39.636Z,19.84
2023-02-22T15:18:20.353Z,19.44
2023-02-22T15:20:55.949Z,19.27
2023-02-22T15:23:27.783Z,19.28
2023-02-22T15:25:55.734Z,19.24
2023-02-22T15:28:25.494Z,19.09
2023-02-22T15:30:53.412Z,19.31
2023-02-22T15:33:24.685Z,19.38
2023-02-22T15:35:57.883Z,19.01
2023-02-22T15:38:33.288Z,18.71
2023-02-22T15:41:03.322Z,18.37
2023-02-22T15:43:32.724Z,18.10
2023-02-22T15:46:01.969Z,18.05
2023-02-22T15:48:31.918Z,18.03
2023-02-22T15:51:07.857Z,17.88
2023-02-22T15:53:41.161Z,17.36
2023-02-22T15:56:13.737Z,16.92
2023-02-22T15:58:43.269Z,16.56
2023-02-22T16:01:14.249Z,16.55
2023-02-22T16:03:47.701Z,16.46
2023-02-22T16:06:27.734Z,16.44
2023-02-22T16:08:57.715Z,16.26
2023-02-22T16:11:31.053Z,16.07
2023-02-22T16:14:05.128Z,16.02
2023-02-22T16:16:34.891Z,15.81
2023-02-22T16:19:37.900Z,15.71
2023-02-22T16:22:13.760Z,15.53
2023-02-22T16:24:42.504Z,15.48
2023-02-22T16:27:22.188Z,15.47
2023-02-22T16:30:15.541Z,15.40
2023-02-22T16:32:50.746Z,15.29
2023-02-22T16:35:20.249Z,15.15
2023-02-22T16:37:50.169Z,15.03
2023-02-22T16:40:24.908Z,15.01
2023-02-22T16:42:52.891Z,14.90
2023-02-22T16:45:22.770Z,14.90
2023-02-22T16:47:53.770Z,14.79
2023-02-22T16:50:23.890Z,14.82
2023-02-22T16:52:55.251Z,14.79
2023-02-22T16:55:24.743Z,14.77
2023-02-22T16:57:57.081Z,14.77
2023-02-22T17:00:32.035Z,14.62
2023-02-22T17:03:03.856Z,14.56
2023-02-22T17:05:36.413Z,14.33
2023-02-22T17:08:05.061Z,14.31
2023-02-22T17:10:34.197Z,14.21
2023-02-22T17:13:16.168Z,14.15
2023-02-22T17:15:49.766Z,14.06
2023-02-22T17:18:22.654Z,13.94
2023-02-22T17:20:52.602Z,13.73
2023-02-22T17:23:21.152Z,13.65
2023-02-22T17:25:54.493Z,13.58
2023-02-22T17:28:23.667Z,13.66
2023-02-22T17:30:52.177Z,13.62
2023-02-22T17:33:22.757Z,13.54
2023-02-22T17:35:52.196Z,13.46
2023-02-22T17:38:20.698Z,13.38
2023-02-22T17:40:49.268Z,13.43
2023-02-22T17:43:19.463Z,13.48
2023-02-22T17:45:47.979Z,13.33
2023-02-22T17:48:17.482Z,13.34
2023-02-22T17:50:46.878Z,13.21
2023-02-22T17:53:18.231Z,13.12
2023-02-22T17:55:46.154Z,13.09
2023-02-22T17:58:15.065Z,13.15
2023-02-22T18:00:45.065Z,13.01
2023-02-22T18:03:16.194Z,12.97
2023-02-22T18:05:46.259Z,12.86
2023-02-22T18:08:14.562Z,12.99
2023-02-22T18:10:44.519Z,13.11
2023-02-22T18:13:16.706Z,13.05
2023-02-22T18:15:45.430Z,12.99
2023-02-22T18:18:13.593Z,13.07
2023-02-22T18:20:43.903Z,12.95
2023-02-22T18:23:14.517Z,13.00
2023-02-22T18:26:03.707Z,12.87
2023-02-22T18:28:37.752Z,12.95
2023-02-22T18:31:08.531Z,12.99
2023-02-22T18:33:36.717Z,13.11
2023-02-22T18:36:05.205Z,12.98
2023-02-22T18:38:33.117Z,13.17
2023-02-22T18:41:03.698Z,13.15
2023-02-22T18:43:34.287Z,12.86
2023-02-22T18:46:10.078Z,12.93
2023-02-22T18:48:39.102Z,12.87
2023-02-22T18:51:09.838Z,12.94
2023-02-22T18:53:38.672Z,12.99
2023-02-22T18:56:10.179Z,12.92
2023-02-22T18:58:38.980Z,12.89
2023-02-22T19:01:08.248Z,12.84
2023-02-22T19:03:38.460Z,12.83
2023-02-22T19:06:09.196Z,12.89
2023-02-22T19:08:39.632Z,12.98
2023-02-22T19:11:11.519Z,12.94
2023-02-22T19:13:39.818Z,12.88
2023-02-22T19:16:08.290Z,12.72
2023-02-22T19:18:36.301Z,12.74
2023-02-22T19:21:08.593Z,12.68
2023-02-22T19:23:38.808Z,12.61
2023-02-22T19:26:09.421Z,12.58
2023-02-22T19:28:37.368Z,12.52
2023-02-22T19:31:13.260Z,12.38
2023-02-22T19:33:41.825Z,12.26
2023-02-22T19:36:11.050Z,12.22
2023-02-22T19:38:39.437Z,12.11
2023-02-22T19:41:10.490Z,12.13
2023-02-22T19:43:38.528Z,12.14
2023-02-22T19:46:07.627Z,12.18
2023-02-22T19:48:36.295Z,12.04
2023-02-22T19:51:06.522Z,11.95
2023-02-22T19:53:35.055Z,11.97
2023-02-22T19:56:09.480Z,11.93
2023-02-22T19:58:39.685Z,11.76
2023-02-22T20:01:15.184Z,11.73
2023-02-22T20:03:43.636Z,11.61
2023-02-22T20:06:16.739Z,11.48
2023-02-22T20:08:44.925Z,11.54
2023-02-22T20:11:14.075Z,11.50
2023-02-22T20:13:43.703Z,11.44
2023-02-22T20:16:15.747Z,11.38
2023-02-22T20:18:44.411Z,11.44
2023-02-22T20:21:15.559Z,11.34
2023-02-22T20:23:44.452Z,11.12
2023-02-22T20:26:16.641Z,11.13
2023-02-22T20:28:46.694Z,11.19
2023-02-22T20:31:16.681Z,11.29
2023-02-22T20:33:46.677Z,11.28
2023-02-22T20:36:16.994Z,11.20
2023-02-22T20:38:45.225Z,11.23
2023-02-22T20:41:15.653Z,11.09
2023-02-22T20:43:45.177Z,11.22
2023-02-22T20:46:13.679Z,11.22
2023-02-22T20:48:42.036Z,11.28
2023-02-22T20:51:11.268Z,11.28
2023-02-22T20:53:41.817Z,11.36
2023-02-22T20:56:13.387Z,11.39
2023-02-22T20:58:41.363Z,11.36
2023-02-22T21:01:13.928Z,11.34
2023-02-22T21:03:43.257Z,11.38
2023-02-22T21:06:15.050Z,11.23
2023-02-22T21:08:44.321Z,10.97
2023-02-22T21:11:16.199Z,11.03
2023-02-22T21:13:45.186Z,11.06
2023-02-22T21:16:19.175Z,10.90
2023-02-22T21:18:47.095Z,11.04
2023-02-22T21:21:16.683Z,11.07
2023-02-22T21:23:50.222Z,11.05
2023-02-22T21:26:20.100Z,10.95
2023-02-22T21:28:51.427Z,10.93
2023-02-22T21:31:23.051Z,11.02
2023-02-22T21:33:52.686Z,10.91
2023-02-22T21:36:25.169Z,10.78
2023-02-22T21:38:55.633Z,10.57
2023-02-22T21:41:27.819Z,10.29
2023-02-22T21:43:56.897Z,10.22
2023-02-22T21:46:27.161Z,10.16
2023-02-22T21:48:55.894Z,10.09
2023-02-22T21:51:26.382Z,10.19
2023-02-22T21:53:55.697Z,10.18
2023-02-22T21:56:27.529Z,10.21
2023-02-22T21:58:59.184Z,10.07
2023-02-22T22:01:30.052Z,10.15
2023-02-22T22:04:00.417Z,10.18
2023-02-22T22:06:29.653Z,10.13
2023-02-22T22:08:59.840Z,9.91
2023-02-22T22:11:30.693Z,9.90
2023-02-22T22:14:00.442Z,9.84
2023-02-22T22:16:30.446Z,9.74
2023-02-22T22:18:58.819Z,9.68
2023-02-22T22:21:27.039Z,9.53
2023-02-22T22:23:56.171Z,9.37
2023-02-22T22:26:26.320Z,9.26
2023-02-22T22:28:55.953Z,9.12
2023-02-22T22:31:25.895Z,8.97
2023-02-22T22:33:56.326Z,8.88
2023-02-22T22:36:26.162Z,8.74
2023-02-22T22:38:57.510Z,8.72
2023-02-22T22:41:28.922Z,8.66
2023-02-22T22:43:57.357Z,8.53
2023-02-22T22:46:25.426Z,8.59
2023-02-22T22:48:53.385Z,8.57
2023-02-22T22:51:23.076Z,8.54
2023-02-22T22:53:51.918Z,8.44
2023-02-22T22:56:26.035Z,8.48
2023-02-22T22:58:56.920Z,8.37
2023-02-22T23:01:27.357Z,8.31
2023-02-22T23:03:59.860Z,8.28
2023-02-22T23:06:33.117Z,8.21
2023-02-22T23:09:10.199Z,8.39
2023-02-22T23:11:44.420Z,8.52
2023-02-22T23:14:13.500Z,8.54
2023-02-22T23:16:42.791Z,8.63
2023-02-22T23:19:11.159Z,8.55
2023-02-22T23:21:43.164Z,8.33
2023-02-22T23:24:15.201Z,8.23
2023-02-22T23:26:48.346Z,7.96
2023-02-22T23:29:17.166Z,7.99
2023-02-22T23:31:48.218Z,7.98
2023-02-22T23:34:17.141Z,7.98
2023-02-22T23:36:46.735Z,8.06
2023-02-22T23:39:16.885Z,8.09
2023-02-22T23:41:44.873Z,8.02
2023-02-22T23:44:17.426Z,7.97
2023-02-22T23:46:48.245Z,7.95
2023-02-22T23:49:20.664Z,7.94
2023-02-22T23:51:50.491Z,7.80
2023-02-22T23:54:21.150Z,7.69
2023-02-22T23:56:56.915Z,7.72
2023-02-22T23:59:25.954Z,7.76
